Ana Sayfa
METAR-TAF:

METAR-TAF

Havaalanları :

Lynchburg Regional Airport (Preston Glenn Field)

Lynchburg, Virginia, Amerika Birleşik Devletleri

Enlem: 37-19-15N, Boylam: 079-12-24W, yükseklik: 285 m

Güncel hava durumu gözlemi

Rapor saat 01:54 UTC de 42 dakika önce yapıldı.
Rüzgar kuzeybatıdan 6 kt ve 15 kt'a kadar ani rüzgarlar
Sıcaklık -1°C
Nem 46%
Basınç 1021 hPa
Görüş mesafesi: 16.1 km
5000 ft yükseklikte parçalı çok bulutlu

METAR: KLYH 200154Z 31006G15KT 10SM BKN050 M01/M11 A3016 RMK AO2 SLP218 T10061106

Saat: 21:36 (02:36 UTC)

Tahmin

Rapor saat 23:22 UTC de 3 saat ve 14 dakika önce yapıldı.
Ayın 20'si saat 00 UTC'den ayın 20'si saat 24 UTC'ye kadar geçerli Tahmin
Rüzgar batı/kuzeybatıdan 10 kt ve 18 kt'a kadar ani rüzgarlar
Görüş mesafesi: 10 km
25000 ft yükseklikte parçalı bulutlu
Ayın 20'si saat 0500 UTC'den
Rüzgar kuzeybatıdan 9 kt
Görüş mesafesi: 10 km
Açık gökyüzü

TAF: KLYH 192322Z 2000/2024 30010G18KT P6SM SCT250 FM200500 31009KT P6SM SKC

4.000'den fazla havaalanı için hava durumu gözlemleri ve tahminleri (METAR ve TAF raporları).

Kullanılabilir istasyonlar harita üzerinde sarı ve kırmızı noktalarla gösterilir.

İstasyonun adını görmek için fareyi noktanın üzerinde gezdirin.

Sonrasında hava gözlem ve tahminlerini görmek için tıklayın.

Haritayı değiştirmek için: yaklaştırmak için siyah artı işaretli yeşil düğmeye ve uzaklaştırmak için de eksi işaretli düğmeye hızla tıklayın; bitişik haritalar için yeşil okları kullanın.


METAR-TAF: